Terminal Aerodrome Forecast
Issued by NWS

Home | Current Version | Previous Version | Text Only | Print | Product List | Glossary Off
Versions: 1 2 3 4 5 6 7 8 9 10 11 12 13 14 15 16 17 18 19 20 21 22 23 24 25 26

000
FTUS43 KDLH 201500 AAA
TAFHYR
TAF AMD
KHYR 201523Z 2015/2112 30008G15KT P6SM BKN025
      TEMPO 2015/2017 SCT025
     FM201700 29008KT P6SM BKN028
     FM202000 26005KT P6SM SCT035
     FM210100 VRB04KT P6SM -TSRA BKN050CB
     FM210500 29004KT P6SM -RA BKN050=

USA.gov is the U.S. government's official web portal to all federal, state and local government web resources and services.